This is the latest recevied weather packets stored in our database for station/object KA0EGE. If no packets are shown the sender has not sent any weather packets the latest 10 day(s).
| Time | Temp. | Humidity | Pressure | Rain* | Wind** | Luminosity | Snow |
|---|---|---|---|---|---|---|---|
| 1777748718 | 20.56° C | 70% | 1016.1 hPa | 0 mm | - | 901 W/m² | - |
| 1777748415 | 20.56° C | 70% | 1016 hPa | 0 mm | - | 273 W/m² | - |
| 1777748110 | 20.56° C | 72% | 1016.1 hPa | 0 mm | - | 250 W/m² | - |
| 1777747807 | 20° C | 73% | 1016.2 hPa | 0 mm | - | 1023 W/m² | - |
| 1777747502 | 20.56° C | 73% | 1016.1 hPa | 0 mm | - | 610 W/m² | - |
| 1777747199 | 20.56° C | 73% | 1016.3 hPa | 0 mm | - | 804 W/m² | - |
| 1777746895 | 20° C | 75% | 1016.1 hPa | 0 mm | - | 890 W/m² | - |
| 1777746590 | 20° C | 75% | 1015.9 hPa | 0 mm | - | 209 W/m² | - |
| 1777746286 | 20° C | 75% | 1015.9 hPa | 0 mm | - | 1046 W/m² | - |
| 1777745982 | 20° C | 73% | 1016 hPa | 0 mm | - | 372 W/m² | - |
| 1777745680 | 19.44° C | 76% | 1016.2 hPa | 0 mm | - | 525 W/m² | - |
| 1777745379 | 20° C | 76% | 1016 hPa | 0 mm | - | 259 W/m² | - |
| 1777745076 | 20.56° C | 73% | 1016.1 hPa | 0 mm | - | 478 W/m² | - |
| 1777744772 | 19.44° C | 76% | 1016.1 hPa | 0 mm | - | 747 W/m² | - |
| 1777744466 | 19.44° C | 77% | 1015.9 hPa | 0 mm | - | 303 W/m² | - |
| 1777744163 | 20° C | 77% | 1016.1 hPa | 0 mm | - | 662 W/m² | - |
| 1777743860 | 19.44° C | 78% | 1016 hPa | 0 mm | - | 814 W/m² | - |
| 1777743556 | 18.89° C | 79% | 1016.1 hPa | 0 mm | - | 549 W/m² | - |
| 1777743253 | 18.89° C | 78% | 1016 hPa | 0 mm | - | 717 W/m² | - |
| 1777742952 | 19.44° C | 79% | 1016 hPa | 0 mm | - | 667 W/m² | - |
| 1777742649 | 18.33° C | 81% | 1016.2 hPa | 0 mm | - | 618 W/m² | - |
| 1777742344 | 18.33° C | 82% | 1016.2 hPa | 0 mm | - | 570 W/m² | - |
| 1777742041 | 18.33° C | 81% | 1016.2 hPa | 0 mm | - | 605 W/m² | - |
| 1777741738 | 18.33° C | 80% | 1016.2 hPa | 0 mm | - | 546 W/m² | - |
| 1777741434 | 18.89° C | 80% | 1016.1 hPa | 0 mm | - | 721 W/m² | - |
* Rain latest hour (hover to see other rain measurements)
** Current wind speed in m/s (hover to see current wind gust speed)